createdAt,value
2023-03-11T00:05:15.314Z,978.5
2023-03-11T00:20:38.634Z,979.1
2023-03-11T00:36:01.935Z,979.7
2023-03-11T00:51:25.237Z,980.1
2023-03-11T01:06:48.545Z,980.6
2023-03-11T01:22:11.867Z,981
2023-03-11T01:37:35.172Z,981.4
2023-03-11T01:52:58.475Z,982
2023-03-11T02:08:21.792Z,982.4
2023-03-11T02:23:44.124Z,983
2023-03-11T02:39:07.426Z,983.5
2023-03-11T02:54:30.730Z,984.1
2023-03-11T03:09:54.032Z,984.6
2023-03-11T03:25:17.346Z,985.2
2023-03-11T03:40:40.656Z,985.6
2023-03-11T03:56:03.000Z,986.1
2023-03-11T04:11:26.300Z,986.4
2023-03-11T04:26:48.632Z,986.7
2023-03-11T04:42:10.966Z,987.2
2023-03-11T04:57:33.278Z,987.4
2023-03-11T05:12:56.548Z,987.8
2023-03-11T05:28:19.809Z,988
2023-03-11T05:43:43.080Z,988.3
2023-03-11T05:59:06.342Z,988.5
2023-03-11T06:14:29.603Z,988.9
2023-03-11T06:29:52.876Z,989.1
2023-03-11T06:45:16.152Z,989.5
2023-03-11T07:00:39.414Z,990
2023-03-11T07:16:02.679Z,990.2
2023-03-11T07:31:25.931Z,990.6
2023-03-11T07:46:49.207Z,990.9
2023-03-11T08:02:12.469Z,991.1
2023-03-11T08:17:34.749Z,991.4
2023-03-11T08:32:58.018Z,991.6
2023-03-11T08:48:21.287Z,991.9
2023-03-11T09:03:44.552Z,992.1
2023-03-11T09:19:07.804Z,992.3
2023-03-11T09:34:31.074Z,992.6
2023-03-11T09:49:54.348Z,992.8
2023-03-11T10:05:16.628Z,993.1
2023-03-11T10:20:38.918Z,993.3
2023-03-11T10:36:01.197Z,993.4
2023-03-11T10:51:23.471Z,993.5
2023-03-11T11:06:46.743Z,993.7
2023-03-11T11:22:10.020Z,993.7
2023-03-11T11:37:33.278Z,993.9
2023-03-11T11:52:56.545Z,994.1
2023-03-11T11:54:19.952Z,994.1
2023-03-11T11:55:43.362Z,994.1
2023-03-11T11:57:06.769Z,994.1
2023-03-11T11:58:30.175Z,994.1
2023-03-11T11:59:53.598Z,994
2023-03-11T12:01:16.992Z,994.1
2023-03-11T12:02:40.394Z,994.1
2023-03-11T12:04:03.811Z,994.1
2023-03-11T12:05:26.229Z,994
2023-03-11T12:06:49.645Z,994
2023-03-11T12:08:13.048Z,994
2023-03-11T12:09:36.453Z,994
2023-03-11T12:10:59.862Z,993.9
2023-03-11T12:12:23.277Z,993.9
2023-03-11T12:13:46.676Z,994
2023-03-11T12:15:09.120Z,994.1
2023-03-11T12:16:31.545Z,994
2023-03-11T12:17:54.956Z,994
2023-03-11T12:19:18.359Z,994
2023-03-11T12:20:41.772Z,994
2023-03-11T12:22:05.177Z,994
2023-03-11T12:23:28.000Z,994.1
2023-03-11T12:24:52.001Z,994.1
2023-03-11T12:26:15.401Z,994.1
2023-03-11T12:27:38.822Z,994.1
2023-03-11T12:29:02.232Z,994.1
2023-03-11T12:30:25.638Z,994.1
2023-03-11T12:31:49.057Z,994.1
2023-03-11T12:33:12.470Z,994.1
2023-03-11T12:34:34.897Z,994
2023-03-11T12:35:58.301Z,994.1
2023-03-11T12:37:21.704Z,994.1
2023-03-11T12:38:45.107Z,994.1
2023-03-11T12:40:08.519Z,994.1
2023-03-11T12:41:31.941Z,994.1
2023-03-11T12:44:18.000Z,994.2
2023-03-11T12:45:41.179Z,994.1
2023-03-11T12:47:03.615Z,994.2
2023-03-11T12:48:27.016Z,994.2
2023-03-11T12:49:50.443Z,994.2
2023-03-11T12:52:37.254Z,994.2
2023-03-11T12:54:00.676Z,994.3
2023-03-11T12:55:24.081Z,994.2
2023-03-11T12:56:47.480Z,994.3
2023-03-11T12:58:10.897Z,994.3
2023-03-11T12:59:34.295Z,994.3
2023-03-11T13:00:57.707Z,994.3
2023-03-11T13:02:21.124Z,994.3
2023-03-11T13:03:44.534Z,994.3
2023-03-11T13:05:06.953Z,994.4
2023-03-11T13:06:30.361Z,994.3
2023-03-11T13:07:53.760Z,994.3
2023-03-11T13:09:17.168Z,994.3
2023-03-11T13:10:40.000Z,994.4
2023-03-11T13:12:03.990Z,994.4
2023-03-11T13:13:27.408Z,994.4
2023-03-11T13:14:50.818Z,994.3
2023-03-11T13:16:13.253Z,994.4
2023-03-11T13:17:35.675Z,994.3
2023-03-11T13:18:58.108Z,994.4
2023-03-11T13:20:20.521Z,994.4
2023-03-11T13:21:43.940Z,994.4
2023-03-11T13:23:07.349Z,994.4
2023-03-11T13:24:30.759Z,994.4
2023-03-11T13:25:54.169Z,994.5
2023-03-11T13:27:17.566Z,994.5
2023-03-11T13:28:40.979Z,994.5
2023-03-11T13:30:04.395Z,994.6
2023-03-11T13:31:27.809Z,994.6
2023-03-11T13:32:51.213Z,994.6
2023-03-11T13:34:14.621Z,994.6
2023-03-11T13:35:38.040Z,994.7
2023-03-11T13:37:01.438Z,994.7
2023-03-11T13:38:23.870Z,994.6
2023-03-11T13:39:47.271Z,994.6
2023-03-11T13:41:10.692Z,994.7
2023-03-11T13:42:34.111Z,994.6
2023-03-11T13:43:57.513Z,994.6
2023-03-11T13:45:20.915Z,994.6
2023-03-11T13:46:44.332Z,994.7
2023-03-11T13:48:06.763Z,994.7
2023-03-11T13:49:29.181Z,994.7
2023-03-11T13:50:52.605Z,994.6
2023-03-11T13:52:15.998Z,994.7
2023-03-11T13:53:39.422Z,994.7
2023-03-11T13:55:02.825Z,994.7
2023-03-11T13:56:26.243Z,994.7
2023-03-11T13:57:49.640Z,994.8
2023-03-11T13:59:13.050Z,994.7
2023-03-11T14:00:36.467Z,994.8
2023-03-11T14:01:59.874Z,994.8
2023-03-11T14:03:23.279Z,994.8
2023-03-11T14:04:46.693Z,994.7
2023-03-11T14:06:10.112Z,994.7
2023-03-11T14:07:32.523Z,994.7
2023-03-11T14:08:55.930Z,994.5
2023-03-11T14:10:19.358Z,994.5
2023-03-11T14:11:42.763Z,994.6
2023-03-11T14:13:06.174Z,994.6
2023-03-11T14:14:29.574Z,994.6
2023-03-11T14:15:52.985Z,994.7
2023-03-11T14:17:16.399Z,994.7
2023-03-11T14:18:39.804Z,994.8
2023-03-11T14:20:03.216Z,994.7
2023-03-11T14:21:26.618Z,994.7
2023-03-11T14:22:50.018Z,994.8
2023-03-11T14:24:13.435Z,994.8
2023-03-11T14:25:35.862Z,994.7
2023-03-11T14:26:59.270Z,994.7
2023-03-11T14:28:22.692Z,994.8
2023-03-11T14:29:46.000Z,994.8
2023-03-11T14:31:09.500Z,994.9
2023-03-11T14:32:32.914Z,994.9
2023-03-11T14:33:56.338Z,994.9
2023-03-11T14:35:19.734Z,995.1
2023-03-11T14:36:43.157Z,995.1
2023-03-11T14:38:06.560Z,995.1
2023-03-11T14:39:29.982Z,995.1
2023-03-11T14:40:53.387Z,995.1
2023-03-11T14:42:16.783Z,995
2023-03-11T14:43:39.208Z,995
2023-03-11T14:45:02.595Z,995.1
2023-03-11T14:46:26.013Z,995.1
2023-03-11T14:47:49.417Z,995.1
2023-03-11T14:49:12.836Z,995.2
2023-03-11T14:50:36.241Z,995.2
2023-03-11T14:51:59.647Z,995.2
2023-03-11T14:53:23.056Z,995.2
2023-03-11T14:54:46.458Z,995.2
2023-03-11T14:56:09.883Z,995.3
2023-03-11T14:57:33.282Z,995.3
2023-03-11T14:58:56.697Z,995.3
2023-03-11T15:00:20.102Z,995.3
2023-03-11T15:01:42.520Z,995.3
2023-03-11T15:03:05.942Z,995.4
2023-03-11T15:04:29.337Z,995.4
2023-03-11T15:05:52.748Z,995.3
2023-03-11T15:07:16.170Z,995.3
2023-03-11T15:08:39.571Z,995.4
2023-03-11T15:10:02.984Z,995.3
2023-03-11T15:11:26.388Z,995.3
2023-03-11T15:12:49.795Z,995.4
2023-03-11T15:14:13.201Z,995.4
2023-03-11T15:15:35.632Z,995.4
2023-03-11T15:16:59.028Z,995.4
2023-03-11T15:18:22.440Z,995.5
2023-03-11T15:19:45.847Z,995.3
2023-03-11T15:21:09.261Z,995.3
2023-03-11T15:22:32.668Z,995.4
2023-03-11T15:23:56.089Z,995.5
2023-03-11T15:25:19.491Z,995.5
2023-03-11T15:26:42.902Z,995.5
2023-03-11T15:28:06.301Z,995.5
2023-03-11T15:29:29.729Z,995.5
2023-03-11T15:30:53.133Z,995.4
2023-03-11T15:32:16.552Z,995.5
2023-03-11T15:33:38.960Z,995.5
2023-03-11T15:35:02.370Z,995.5
2023-03-11T15:36:25.784Z,995.4
2023-03-11T15:37:49.203Z,995.4
2023-03-11T15:39:12.600Z,995.4
2023-03-11T15:40:36.021Z,995.5
2023-03-11T15:41:59.429Z,995.5
2023-03-11T15:43:22.838Z,995.6
2023-03-11T15:44:46.241Z,995.6
2023-03-11T15:46:09.653Z,995.6
2023-03-11T15:47:33.061Z,995.7
2023-03-11T15:48:56.473Z,995.6
2023-03-11T15:50:19.889Z,995.6
2023-03-11T15:51:42.304Z,995.6
2023-03-11T15:53:05.726Z,995.6
2023-03-11T15:54:29.129Z,995.6
2023-03-11T15:55:52.526Z,995.7
2023-03-11T15:57:15.954Z,995.7
2023-03-11T15:58:39.344Z,995.7
2023-03-11T16:00:02.762Z,995.8
2023-03-11T16:01:26.170Z,995.8
2023-03-11T16:02:49.581Z,995.8
2023-03-11T16:04:12.980Z,995.8
2023-03-11T16:05:36.404Z,995.9
2023-03-11T16:06:59.803Z,995.9
2023-03-11T16:08:23.224Z,995.8
2023-03-11T16:09:45.644Z,995.9
2023-03-11T16:11:09.054Z,995.9
2023-03-11T16:12:32.464Z,995.9
2023-03-11T16:13:55.873Z,996
2023-03-11T16:15:19.273Z,996
2023-03-11T16:16:42.681Z,996.1
2023-03-11T16:18:06.085Z,996
2023-03-11T16:19:29.502Z,996.1
2023-03-11T16:20:52.918Z,996
2023-03-11T16:22:16.327Z,996.1
2023-03-11T16:23:39.733Z,996.1
2023-03-11T16:25:03.147Z,996.1
2023-03-11T16:26:26.537Z,996.1
2023-03-11T16:27:48.981Z,996.1
2023-03-11T16:29:12.376Z,996.2
2023-03-11T16:30:35.777Z,996.2
2023-03-11T16:31:59.193Z,996.2
2023-03-11T16:33:22.615Z,996.2
2023-03-11T16:34:46.028Z,996.2
2023-03-11T16:36:09.437Z,996.3
2023-03-11T16:37:32.846Z,996.3
2023-03-11T16:38:56.239Z,996.3
2023-03-11T16:40:19.657Z,996.3
2023-03-11T16:41:43.059Z,996.3
2023-03-11T16:43:06.473Z,996.3
2023-03-11T16:44:29.891Z,996.4
2023-03-11T16:45:52.308Z,996.4
2023-03-11T16:47:15.710Z,996.4
2023-03-11T16:48:39.132Z,996.5
2023-03-11T16:50:02.527Z,996.5
2023-03-11T16:51:25.950Z,996.5
2023-03-11T16:52:49.361Z,996.5
2023-03-11T16:54:12.757Z,996.5
2023-03-11T16:55:36.170Z,996.6
2023-03-11T16:56:59.566Z,996.5
2023-03-11T16:58:22.981Z,996.6
2023-03-11T16:59:46.392Z,996.6
2023-03-11T17:01:09.798Z,996.6
2023-03-11T17:02:33.202Z,996.6
2023-03-11T17:03:55.625Z,996.6
2023-03-11T17:05:19.047Z,996.7
2023-03-11T17:06:42.445Z,996.6
2023-03-11T17:08:05.848Z,996.7
2023-03-11T17:09:29.257Z,996.7
2023-03-11T17:10:52.670Z,996.7
2023-03-11T17:12:16.071Z,996.8
2023-03-11T17:13:39.489Z,996.8
2023-03-11T17:15:02.893Z,996.9
2023-03-11T17:16:26.293Z,996.9
2023-03-11T17:17:49.702Z,996.9
2023-03-11T17:19:13.116Z,996.9
2023-03-11T17:20:36.512Z,996.9
2023-03-11T17:21:58.932Z,996.9
2023-03-11T17:23:22.348Z,996.9
2023-03-11T17:24:45.758Z,996.9
2023-03-11T17:26:09.177Z,996.9
2023-03-11T17:27:32.580Z,997
2023-03-11T17:28:55.985Z,997
2023-03-11T17:30:19.388Z,997
2023-03-11T17:31:42.806Z,997
2023-03-11T17:33:06.212Z,997
2023-03-11T17:34:29.661Z,997.1
2023-03-11T17:35:53.061Z,997.1
2023-03-11T17:37:16.480Z,997.1
2023-03-11T17:38:39.887Z,997.1
2023-03-11T17:40:02.348Z,997.1
2023-03-11T17:41:25.789Z,997.2
2023-03-11T17:42:49.257Z,997.2
2023-03-11T17:44:12.700Z,997.2
2023-03-11T17:45:36.148Z,997.2
2023-03-11T17:46:59.597Z,997.2
2023-03-11T17:48:23.047Z,997.2
2023-03-11T17:49:46.491Z,997.3
2023-03-11T17:51:09.956Z,997.3
2023-03-11T17:52:33.401Z,997.3
2023-03-11T17:53:56.869Z,997.3
2023-03-11T17:55:20.315Z,997.3
2023-03-11T17:56:43.750Z,997.4
2023-03-11T17:58:06.224Z,997.4
2023-03-11T17:59:29.678Z,997.4
2023-03-11T18:00:53.127Z,997.4
2023-03-11T18:02:16.571Z,997.4
2023-03-11T18:03:40.030Z,997.5
2023-03-11T18:05:03.476Z,997.5
2023-03-11T18:06:26.922Z,997.5
2023-03-11T18:07:50.372Z,997.5
2023-03-11T18:09:13.817Z,997.5
2023-03-11T18:10:37.288Z,997.5
2023-03-11T18:12:00.731Z,997.5
2023-03-11T18:13:24.177Z,997.6
2023-03-11T18:14:47.627Z,997.6
2023-03-11T18:16:10.088Z,997.6
2023-03-11T18:17:33.551Z,997.6
2023-03-11T18:20:20.445Z,997.6
2023-03-11T18:21:43.906Z,997.7
2023-03-11T18:23:07.347Z,997.7
2023-03-11T18:24:30.796Z,997.7
2023-03-11T18:25:54.243Z,997.7
2023-03-11T18:27:17.699Z,997.7
2023-03-11T18:28:41.154Z,997.7
2023-03-11T18:30:04.587Z,997.7
2023-03-11T18:31:28.048Z,997.7
2023-03-11T18:32:51.503Z,997.7
2023-03-11T18:34:13.969Z,997.7
2023-03-11T18:35:37.419Z,997.7
2023-03-11T18:37:00.864Z,997.6
2023-03-11T18:38:24.325Z,997.7
2023-03-11T18:39:47.766Z,997.6
2023-03-11T18:41:11.216Z,997.7
2023-03-11T18:42:34.668Z,997.6
2023-03-11T18:43:58.115Z,997.7
2023-03-11T18:45:21.569Z,997.7
2023-03-11T18:46:45.021Z,997.7
2023-03-11T18:48:08.473Z,997.7
2023-03-11T18:49:31.920Z,997.7
2023-03-11T18:50:55.366Z,997.7
2023-03-11T18:52:17.848Z,997.7
2023-03-11T18:55:04.754Z,997.7
2023-03-11T18:56:28.189Z,997.7
2023-03-11T18:57:51.655Z,997.7
2023-03-11T18:59:15.095Z,997.7
2023-03-11T19:14:38.403Z,997.8
2023-03-11T19:30:01.709Z,997.9
2023-03-11T19:45:25.028Z,997.9
2023-03-11T20:00:48.328Z,998
2023-03-11T20:16:11.658Z,998
2023-03-11T20:31:34.967Z,998.1
2023-03-11T20:46:58.280Z,998.1
2023-03-11T21:02:20.605Z,998.1
2023-03-11T21:17:43.911Z,998
2023-03-11T21:33:07.229Z,998.1
2023-03-11T21:48:30.533Z,998.1
2023-03-11T22:03:53.848Z,998.1
2023-03-11T22:19:17.152Z,998.3
2023-03-11T22:34:40.473Z,998.1
2023-03-11T22:50:03.776Z,998.3
2023-03-11T23:05:27.100Z,998.4
2023-03-11T23:20:50.407Z,998.4
2023-03-11T23:36:13.717Z,998.6
2023-03-11T23:51:37.027Z,998.7
